createdAt,value
2019-06-01T00:03:18.931Z,1.46
2019-06-01T00:06:49.080Z,1.61
2019-06-01T00:10:19.232Z,1.15
2019-06-01T00:13:49.660Z,2.4
2019-06-01T00:17:19.848Z,1.4
2019-06-01T00:20:50.733Z,1.5
2019-06-01T00:24:20.866Z,0.82
2019-06-01T00:27:51.060Z,1.39
2019-06-01T00:31:21.144Z,1.86
2019-06-01T00:34:51.867Z,1.88
2019-06-01T00:38:21.999Z,1.2
2019-06-01T00:41:52.591Z,2.09
2019-06-01T00:45:22.643Z,1.01
2019-06-01T00:48:54.103Z,1.1
2019-06-01T00:52:24.423Z,1.5
2019-06-01T00:55:54.472Z,1.53
2019-06-01T00:59:24.462Z,1.12
2019-06-01T01:00:15.914Z,1.86
2019-06-01T01:03:46.124Z,3.11
2019-06-01T01:07:16.207Z,1.92
2019-06-01T01:10:46.821Z,1.6
2019-06-01T01:14:17.022Z,1.66
2019-06-01T01:17:47.855Z,2.92
2019-06-01T01:21:18.009Z,1.6
2019-06-01T01:24:48.332Z,2.1
2019-06-01T01:28:18.469Z,2.58
2019-06-01T01:31:49.170Z,2.6
2019-06-01T01:35:19.275Z,2.79
2019-06-01T01:38:50.485Z,2.66
2019-06-01T01:42:20.505Z,1.62
2019-06-01T01:45:50.805Z,1.85
2019-06-01T01:49:20.827Z,1.6
2019-06-01T01:52:51.040Z,2.48
2019-06-01T01:56:21.152Z,1.36
2019-06-01T01:59:51.323Z,1.48
2019-06-01T02:03:21.325Z,1.42
2019-06-01T02:06:51.857Z,1.85
2019-06-01T02:10:22.031Z,1.89
2019-06-01T02:13:52.107Z,4.25
2019-06-01T02:17:22.480Z,1.81
2019-06-01T02:20:52.506Z,1.74
2019-06-01T02:24:22.596Z,2.19
2019-06-01T02:27:53.108Z,1.79
2019-06-01T02:31:39.771Z,2.32
2019-06-01T02:35:11.916Z,1.04
2019-06-01T02:38:41.867Z,2.24
2019-06-01T02:42:13.582Z,2.69
2019-06-01T02:45:43.773Z,2.42
2019-06-01T02:49:13.828Z,2.11
2019-06-01T02:52:43.741Z,1.59
2019-06-01T02:56:13.800Z,2.75
2019-06-01T02:59:43.883Z,2.61
2019-06-01T03:00:33.535Z,2.11
2019-06-01T03:04:08.073Z,7.01
2019-06-01T03:07:40.507Z,1.75
2019-06-01T03:11:12.990Z,1.9
2019-06-01T03:14:45.575Z,2.65
2019-06-01T03:18:19.715Z,2.6
2019-06-01T03:21:51.816Z,2.21
2019-06-01T03:25:27.075Z,3.85
2019-06-01T03:29:00.643Z,2.36
2019-06-01T03:32:36.663Z,2.04
2019-06-01T03:36:07.502Z,3.11
2019-06-01T03:39:37.631Z,3.06
2019-06-01T03:43:07.820Z,3.44
2019-06-01T03:46:37.861Z,2.66
2019-06-01T03:50:09.119Z,3.41
2019-06-01T03:53:39.362Z,2.94
2019-06-01T03:57:09.548Z,6.49
2019-06-01T04:00:39.658Z,3.67
2019-06-01T04:04:09.705Z,3.26
2019-06-01T04:07:39.907Z,5.53
2019-06-01T04:11:09.931Z,4.12
2019-06-01T04:14:39.973Z,6.97
2019-06-01T04:18:10.306Z,5.97
2019-06-01T04:21:40.377Z,3.99
2019-06-01T04:25:10.556Z,4.36
2019-06-01T04:28:40.684Z,4.05
2019-06-01T04:32:10.780Z,4.28
2019-06-01T04:35:40.783Z,6.55
2019-06-01T04:39:11.696Z,5.15
2019-06-01T04:42:41.947Z,5.29
2019-06-01T04:46:12.411Z,4.25
2019-06-01T04:49:42.520Z,4.95
2019-06-01T04:53:13.428Z,4.65
2019-06-01T04:56:43.564Z,4.15
2019-06-01T05:03:51.054Z,5.64
2019-06-01T05:07:21.049Z,3.65
2019-06-01T05:10:51.110Z,6.78
2019-06-01T05:14:21.254Z,3.54
2019-06-01T05:17:51.256Z,3.56
2019-06-01T05:21:21.417Z,6.8
2019-06-01T05:24:51.422Z,6.19
2019-06-01T05:28:21.496Z,4.4
2019-06-01T05:31:51.370Z,5.88
2019-06-01T05:35:21.387Z,4.2
2019-06-01T05:38:51.354Z,5.06
2019-06-01T05:42:21.406Z,3.6
2019-06-01T05:45:51.556Z,5.61
2019-06-01T05:49:22.764Z,5.65
2019-06-01T05:52:52.794Z,5.28
2019-06-01T05:56:23.034Z,4.46
2019-06-01T05:59:53.101Z,3.49
2019-06-01T06:03:39.284Z,7.29
2019-06-01T06:07:10.654Z,6.55
2019-06-01T06:10:40.884Z,7.44
2019-06-01T06:14:11.473Z,2.99
2019-06-01T06:17:41.565Z,7.9
2019-06-01T06:21:11.970Z,3.03
2019-06-01T06:24:42.215Z,4.93
2019-06-01T06:28:12.571Z,5.96
2019-06-01T06:31:42.683Z,6.06
2019-06-01T06:35:13.286Z,6.66
2019-06-01T06:38:43.315Z,7.82
2019-06-01T06:42:14.051Z,6.45
2019-06-01T06:45:44.190Z,4.21
2019-06-01T06:49:15.030Z,6.69
2019-06-01T06:52:45.728Z,10.88
2019-06-01T06:56:15.754Z,3.99
2019-06-01T06:59:45.805Z,7.6
2019-06-01T07:00:16.286Z,7.51
2019-06-01T07:03:46.509Z,7.6
2019-06-01T07:07:17.616Z,5.45
2019-06-01T07:10:47.923Z,5.82
2019-06-01T07:14:19.192Z,5.14
2019-06-01T07:17:49.348Z,8.6
2019-06-01T07:21:19.603Z,8.34
2019-06-01T07:24:49.744Z,7.6
2019-06-01T07:28:19.980Z,7.01
2019-06-01T07:31:50.017Z,9.06
2019-06-01T07:35:20.529Z,8.4
2019-06-01T07:38:50.751Z,7.55
2019-06-01T07:42:24.478Z,7.71
2019-06-01T07:45:55.188Z,9.51
2019-06-01T07:49:25.235Z,8.4
2019-06-01T07:52:55.318Z,8.32
2019-06-01T07:56:26.543Z,14.09
2019-06-01T07:59:56.773Z,8.42
2019-06-01T08:03:30.685Z,8.8
2019-06-01T08:07:03.088Z,8.46
2019-06-01T08:10:33.582Z,7.11
2019-06-01T08:14:03.726Z,7.84
2019-06-01T08:17:33.936Z,5.95
2019-06-01T08:21:04.008Z,7.23
2019-06-01T08:24:34.095Z,8.45
2019-06-01T08:28:04.215Z,10.01
2019-06-01T08:31:34.290Z,7.95
2019-06-01T08:35:09.353Z,7.72
2019-06-01T08:38:39.844Z,8.11
2019-06-01T08:42:09.910Z,9.24
2019-06-01T08:45:39.975Z,9.25
2019-06-01T08:49:10.119Z,7.56
2019-06-01T08:52:40.269Z,8.54
2019-06-01T08:56:10.372Z,7.83
2019-06-01T08:59:40.442Z,9.39
2019-06-01T09:00:15.072Z,10.72
2019-06-01T09:03:46.791Z,7.53
2019-06-01T09:07:17.124Z,8.66
2019-06-01T09:10:47.141Z,7.96
2019-06-01T09:14:17.286Z,9.41
2019-06-01T09:17:47.317Z,6.88
2019-06-01T09:21:17.320Z,7.5
2019-06-01T09:24:47.327Z,7.5
2019-06-01T09:28:17.340Z,6.4
2019-06-01T09:31:47.493Z,7.39
2019-06-01T09:35:17.558Z,5.65
2019-06-01T09:38:47.619Z,10.19
2019-06-01T09:42:17.755Z,7.05
2019-06-01T09:45:52.798Z,6.06
2019-06-01T09:49:23.348Z,5.69
2019-06-01T09:52:53.378Z,5.93
2019-06-01T09:56:23.545Z,6.22
2019-06-01T09:59:53.597Z,6.7
2019-06-01T10:03:23.689Z,5.74
2019-06-01T10:06:53.844Z,5.79
2019-06-01T10:10:23.955Z,6.65
2019-06-01T10:13:53.981Z,8.46
2019-06-01T10:17:24.078Z,6.47
2019-06-01T10:20:54.073Z,5.09
2019-06-01T10:24:24.115Z,7.32
2019-06-01T10:27:54.122Z,8.2
2019-06-01T10:31:24.140Z,6.52
2019-06-01T10:34:54.195Z,7.22
2019-06-01T10:38:24.219Z,6.29
2019-06-01T10:41:54.278Z,6.84
2019-06-01T10:45:24.401Z,5.16
2019-06-01T10:48:54.550Z,7.1
2019-06-01T10:52:24.677Z,5.96
2019-06-01T10:55:54.870Z,6.07
2019-06-01T10:59:24.978Z,6.72
2019-06-01T11:00:15.329Z,9.55
2019-06-01T11:03:45.399Z,6.88
2019-06-01T11:07:15.402Z,7.33
2019-06-01T11:10:45.540Z,7.66
2019-06-01T11:14:15.731Z,7.28
2019-06-01T11:17:45.821Z,6.44
2019-06-01T11:21:15.924Z,5.99
2019-06-01T11:24:46.005Z,7.21
2019-06-01T11:28:16.108Z,7.7
2019-06-01T11:31:46.246Z,6.89
2019-06-01T11:35:16.623Z,6.17
2019-06-01T11:38:46.726Z,6.97
2019-06-01T11:42:19.764Z,7.36
2019-06-01T11:45:50.272Z,7.74
2019-06-01T11:49:21.060Z,7.04
2019-06-01T11:52:51.597Z,7.01
2019-06-01T11:56:21.683Z,7.5
2019-06-01T11:59:51.788Z,6.12
2019-06-01T12:03:21.906Z,7.89
2019-06-01T12:06:52.091Z,10.26
2019-06-01T12:10:22.094Z,5.62
2019-06-01T12:13:52.160Z,9.54
2019-06-01T12:17:22.270Z,6.75
2019-06-01T12:20:52.506Z,9.11
2019-06-01T12:24:25.606Z,10.69
2019-06-01T12:27:55.999Z,7.61
2019-06-01T12:31:26.156Z,9.78
2019-06-01T12:34:56.269Z,7.04
2019-06-01T12:38:26.385Z,9.04
2019-06-01T12:41:56.445Z,7.55
2019-06-01T12:45:26.549Z,8.22
2019-06-01T12:48:56.625Z,8.31
2019-06-01T12:52:26.744Z,8.84
2019-06-01T12:55:56.827Z,8.29
2019-06-01T12:59:26.882Z,9.21
2019-06-01T13:00:15.437Z,9.21
2019-06-01T13:03:45.520Z,8.73
2019-06-01T13:07:15.578Z,9.1
2019-06-01T13:10:45.646Z,9.49
2019-06-01T13:14:15.806Z,7.44
2019-06-01T13:17:45.876Z,7.17
2019-06-01T13:21:15.983Z,8.02
2019-06-01T13:24:46.088Z,8.71
2019-06-01T13:28:16.155Z,8
2019-06-01T13:31:46.300Z,9.42
2019-06-01T13:35:16.432Z,7.97
2019-06-01T13:38:46.683Z,8.82
2019-06-01T13:42:16.888Z,9.38
2019-06-01T13:45:47.326Z,7.92
2019-06-01T13:49:17.658Z,8.48
2019-06-01T13:52:48.032Z,8.76
2019-06-01T13:56:18.290Z,8.97
2019-06-01T13:59:48.798Z,8.86
2019-06-01T14:03:19.052Z,7.19
2019-06-01T14:06:49.190Z,8.34
2019-06-01T14:10:19.416Z,8.78
2019-06-01T14:13:49.915Z,8.28
2019-06-01T14:17:20.041Z,9.05
2019-06-01T14:20:50.196Z,10.35
2019-06-01T14:24:20.367Z,7.66
2019-06-01T14:27:50.488Z,7.85
2019-06-01T14:31:20.708Z,9.01
2019-06-01T14:34:51.553Z,7.97
2019-06-01T14:38:22.258Z,7.36
2019-06-01T14:41:53.498Z,8.79
2019-06-01T14:45:24.002Z,7.29
2019-06-01T14:48:54.072Z,7.1
2019-06-01T14:52:24.152Z,7.31
2019-06-01T14:55:54.406Z,7.46
2019-06-01T14:59:24.611Z,7.5
2019-06-01T15:00:15.724Z,8.14
2019-06-01T15:03:45.923Z,8.68
2019-06-01T15:07:16.083Z,7.53
2019-06-01T15:10:46.137Z,8.43
2019-06-01T15:14:16.372Z,6.81
2019-06-01T15:17:46.556Z,8.09
2019-06-01T15:21:16.712Z,8.26
2019-06-01T15:24:46.811Z,7.8
2019-06-01T15:28:16.896Z,8.41
2019-06-01T15:31:47.107Z,7.64
2019-06-01T15:35:18.527Z,8.12
2019-06-01T15:38:48.703Z,7
2019-06-01T15:42:18.848Z,8.9
2019-06-01T15:45:49.017Z,8.24
2019-06-01T15:49:19.240Z,7.36
2019-06-01T15:52:49.376Z,8.93
2019-06-01T15:56:23.012Z,8.14
2019-06-01T15:59:54.535Z,6.57
2019-06-01T16:03:24.869Z,8.79
2019-06-01T16:06:55.075Z,8.51
2019-06-01T16:10:25.250Z,9
2019-06-01T16:13:55.713Z,9.73
2019-06-01T16:17:25.831Z,8.7
2019-06-01T16:20:56.041Z,10.84
2019-06-01T16:24:26.195Z,9.62
2019-06-01T16:27:56.633Z,11.2
2019-06-01T16:31:26.839Z,8.84
2019-06-01T16:34:56.965Z,8.53
2019-06-01T16:38:27.070Z,9.85
2019-06-01T16:41:57.705Z,10.31
2019-06-01T16:45:27.805Z,10.07
2019-06-01T16:48:57.848Z,8.91
2019-06-01T16:52:27.929Z,8.64
2019-06-01T16:55:58.044Z,9.14
2019-06-01T16:59:28.338Z,9.84
2019-06-01T17:00:15.436Z,14.22
2019-06-01T17:03:45.637Z,9.82
2019-06-01T17:07:15.699Z,9.84
2019-06-01T17:10:46.249Z,9.35
2019-06-01T17:14:16.316Z,11.91
2019-06-01T17:17:46.356Z,7.72
2019-06-01T17:21:16.339Z,10.48
2019-06-01T17:24:46.445Z,11.76
2019-06-01T17:28:16.491Z,9.4
2019-06-01T17:31:54.395Z,10.14
2019-06-01T17:35:24.905Z,12.56
2019-06-01T17:38:55.036Z,10.59
2019-06-01T17:42:25.118Z,9.29
2019-06-01T17:45:55.109Z,9.49
2019-06-01T17:49:25.156Z,11.05
2019-06-01T17:52:55.172Z,9.54
2019-06-01T17:56:25.318Z,11.36
2019-06-01T17:59:55.378Z,11.81
2019-06-01T18:03:25.500Z,10.19
2019-06-01T18:06:55.623Z,11.68
2019-06-01T18:10:25.797Z,10.45
2019-06-01T18:13:55.929Z,10.41
2019-06-01T18:17:25.916Z,9.33
2019-06-01T18:20:55.938Z,13.06
2019-06-01T18:24:26.063Z,10.34
2019-06-01T18:27:56.285Z,10.32
2019-06-01T18:31:26.357Z,10.7
2019-06-01T18:34:56.417Z,10.69
2019-06-01T18:38:26.575Z,11.35
2019-06-01T18:41:56.694Z,12.8
2019-06-01T18:45:26.990Z,10.85
2019-06-01T18:48:57.076Z,10.96
2019-06-01T18:52:27.079Z,17.56
2019-06-01T18:55:57.219Z,10.97
2019-06-01T18:59:27.242Z,9.66
2019-06-01T19:00:15.787Z,17.06
2019-06-01T19:03:46.000Z,10.62
2019-06-01T19:07:16.143Z,11.48
2019-06-01T19:10:46.909Z,11.96
2019-06-01T19:14:17.878Z,10.82
2019-06-01T19:17:47.855Z,13.16
2019-06-01T19:21:17.967Z,11.53
2019-06-01T19:24:47.937Z,10.45
2019-06-01T19:28:18.075Z,10.1
2019-06-01T19:31:48.346Z,12.07
2019-06-01T19:35:18.385Z,11.69
2019-06-01T19:38:49.571Z,13.84
2019-06-01T19:42:19.679Z,12.29
2019-06-01T19:45:49.719Z,11.16
2019-06-01T19:49:19.904Z,11.38
2019-06-01T19:52:49.963Z,12.85
2019-06-01T19:56:20.528Z,11.66
2019-06-01T19:59:51.883Z,11.21
2019-06-01T20:03:22.655Z,10.59
2019-06-01T20:06:53.988Z,13.2
2019-06-01T20:10:24.088Z,14.1
2019-06-01T20:13:54.164Z,10.41
2019-06-01T20:17:26.349Z,13.38
2019-06-01T20:20:56.795Z,19.15
2019-06-01T20:24:26.890Z,16.46
2019-06-01T20:27:56.985Z,11.47
2019-06-01T20:31:27.025Z,12.69
2019-06-01T20:34:56.971Z,12.23
2019-06-01T20:38:27.047Z,14.07
2019-06-01T20:41:57.090Z,13.01
2019-06-01T20:45:27.160Z,14.25
2019-06-01T20:48:57.313Z,14.35
2019-06-01T20:52:27.449Z,13.53
2019-06-01T20:55:57.406Z,12.71
2019-06-01T20:59:27.512Z,12.91
2019-06-01T21:00:16.018Z,12.68
2019-06-01T21:03:46.222Z,12.52
2019-06-01T21:07:16.380Z,11.12
2019-06-01T21:10:46.480Z,10.24
2019-06-01T21:14:16.519Z,13.19
2019-06-01T21:17:49.777Z,11.5
2019-06-01T21:21:20.462Z,14.05
2019-06-01T21:24:50.602Z,11.54
2019-06-01T21:28:22.091Z,13.82
2019-06-01T21:31:53.532Z,15.85
2019-06-01T21:35:23.616Z,11.28
2019-06-01T21:38:53.823Z,9.12
2019-06-01T21:42:23.809Z,9.45
2019-06-01T21:45:53.971Z,8.84
2019-06-01T21:49:24.197Z,10.11
2019-06-01T21:52:54.264Z,12.71
2019-06-01T21:56:25.232Z,10.85
2019-06-01T21:59:55.784Z,7.69
2019-06-01T22:03:27.101Z,7.76
2019-06-01T22:06:57.497Z,7.12
2019-06-01T22:10:27.841Z,7.53
2019-06-01T22:13:58.011Z,7
2019-06-01T22:17:27.998Z,10.4
2019-06-01T22:20:58.067Z,10.15
2019-06-01T22:24:28.374Z,10.04
2019-06-01T22:27:58.419Z,10.8
2019-06-01T22:31:28.737Z,9.95
2019-06-01T22:34:58.843Z,9.75
2019-06-01T22:38:29.015Z,9.99
2019-06-01T22:41:59.014Z,11.1
2019-06-01T22:45:29.592Z,7.99
2019-06-01T22:48:59.721Z,10.04
2019-06-01T22:52:29.739Z,7.29
2019-06-01T22:55:59.751Z,9.86
2019-06-01T22:59:29.825Z,9.32
2019-06-01T23:00:14.904Z,14.01
2019-06-01T23:03:45.020Z,13.91
2019-06-01T23:07:15.093Z,8.82
2019-06-01T23:10:45.170Z,8.96
2019-06-01T23:14:15.141Z,9.95
2019-06-01T23:17:45.061Z,8.68
2019-06-01T23:21:15.218Z,8.3
2019-06-01T23:24:45.342Z,7.46
2019-06-01T23:28:15.474Z,7.75
2019-06-01T23:31:45.537Z,8.2
2019-06-01T23:35:15.596Z,9.71
2019-06-01T23:38:45.582Z,7.64
2019-06-01T23:42:15.745Z,12.96
2019-06-01T23:45:45.714Z,15.26
2019-06-01T23:49:15.922Z,7.14
2019-06-01T23:52:46.068Z,7.4
2019-06-01T23:56:16.070Z,6.06
2019-06-01T23:59:46.169Z,6.8
